• Join FlightAware (Why Join?)
  • Login
  • US Flag GB Flag 
22:32 EDT


 

Airport Tracker/Info


-or-


 

Live Flight TrackerFlight Track Log ✈ N682RW ✈ 13-May-2013 ✈ KLGB - KDTW

Flight Track Log - Related Links

Times and Time Zones

All times are in EDT time to prevent confusion due to time zone crossing. See the N682RW flight status page for this flight to view local times or setup timezone preferences in your user account.

Time Position Orientation Groundspeed Altitude Reporting Facility
EDT Latitude Longitude Course Direction KTS MPH feet Rate Location/Type
12:18 33.8333 -118.1667 309° West 170 196 600  Level Southern California TRACON
12:19 33.8514 -118.1939 309° West 194 223 900 1,440 Climbing Los Angeles Center
12:20 33.8533 -118.2592 272° West 250 288 2,900 2,280 Climbing Los Angeles Center
12:21 33.7783 -118.2686 186° South 270 311 5,700 2,640 Climbing Los Angeles Center
12:22 33.6944 -118.2619 176° South 291 335 8,400 2,460 Climbing Los Angeles Center
12:23 33.6367 -118.1958 136° Southeast 301 346 10,900 2,100 Climbing Los Angeles Center
12:24 33.6553 -118.0681 80° East 350 403 12,800 1,980 Climbing Los Angeles Center
12:25 33.6483 -117.9497 94° East 360 414 15,100 2,040 Climbing Los Angeles Center
12:26 33.6472 -117.8244 91° East 375 432 17,100 1,800 Climbing Los Angeles Center
12:27 33.6461 -117.6958 91° East 385 443 18,900 1,740 Climbing Los Angeles Center
12:28 33.6444 -117.5647 91° East 393 452 20,700 1,860 Climbing Los Angeles Center
12:29 33.6444 -117.4044 90° East 400 460 22,800 1,680 Climbing Los Angeles Center
12:30 33.6419 -117.2689 91° East 408 470 24,200 1,320 Climbing Los Angeles Center
12:31 33.6406 -117.1303 91° East 416 479 25,600 1,200 Climbing Los Angeles Center
12:32 33.6403 -116.9897 90° East 422 486 26,800 1,140 Climbing Los Angeles Center
12:33 33.6369 -116.8319 91° East 429 494 28,000 960 Climbing Los Angeles Center
12:34 33.6358 -116.6861 90° East 435 501 28,900 780 Climbing Los Angeles Center
12:35 33.6358 -116.5381 90° East 441 507 29,700 540 Climbing Los Angeles Center
12:36 33.6314 -116.3886 92° East 446 513 30,100 360 Climbing Los Angeles Center
12:38 33.6308 -116.2419 90° East 441 507 30,500 420 Climbing Los Angeles Center
12:39 33.6236 -116.0631 93° East 445 512 31,000 240 Climbing Los Angeles Center
12:40 33.6172 -115.9189 93° East 434 499 31,000  Level Los Angeles Center
12:41 33.6122 -115.7739 92° East 433 498 31,000  Level Los Angeles Center
12:42 33.6058 -115.6289 93° East 435 501 31,000  Level Los Angeles Center
12:43 33.5989 -115.4833 93° East 439 505 31,000 240 Level Los Angeles Center
12:44 33.5928 -115.3400 93° East 432 497 31,500 720 Climbing Los Angeles Center
12:45 33.5844 -115.1694 93° East 427 491 32,600 720 Climbing Los Angeles Center
12:46 33.5781 -115.0289 93° East 425 489 33,000 180 Climbing Los Angeles Center
12:47 33.5714 -114.8886 93° East 425 489 33,000  Level Los Angeles Center
12:48 33.5639 -114.7500 94° East 419 482 33,000  Level Los Angeles Center
12:49 33.5606 -114.6203 92° East 418 481 33,000  Level Albuquerque Center
12:51 33.5458 -114.3436 94° East 417 480 33,000  Level Albuquerque Center
12:52 33.5381 -114.2058 94° East 416 479 33,000  Level Albuquerque Center
12:53 33.5286 -114.0414 94° East 413 475 33,000  Level Albuquerque Center
12:54 33.5206 -113.9047 94° East 412 474 33,000  Level Albuquerque Center
12:55 33.5125 -113.7672 94° East 414 476 33,000  Level Albuquerque Center
12:56 33.5047 -113.6306 94° East 412 474 33,000  Level Albuquerque Center
12:57 33.4964 -113.4931 94° East 412 474 33,000  Level Albuquerque Center
12:58 33.4881 -113.3564 94° East 412 474 33,000  Level Albuquerque Center
12:59 33.4772 -113.1917 94° East 412 474 33,000  Level Albuquerque Center
13:00 33.4769 -113.0553 90° East 414 476 33,000  Level Albuquerque Center
13:01 33.5106 -112.9275 72° East 403 464 33,000  Level Albuquerque Center
13:02 33.5447 -112.7992 72° East 404 465 33,000  Level Albuquerque Center
13:03 33.5772 -112.6706 73° East 404 465 33,000  Level Albuquerque Center
13:04 33.6142 -112.5272 73° East 405 466 33,000  Level Albuquerque Center
13:05 33.6469 -112.3983 73° East 406 467 33,000  Level Albuquerque Center
13:06 33.6792 -112.2700 73° East 404 465 33,000  Level Albuquerque Center
13:07 33.7125 -112.1419 73° East 406 467 33,000  Level Albuquerque Center
13:08 33.7450 -112.0136 73° East 405 466 33,000  Level Albuquerque Center
13:09 33.7814 -111.8717 73° East 400 460 33,000  Level Albuquerque Center
13:11 33.8136 -111.7408 73° East 405 466 33,000  Level Albuquerque Center
13:12 33.8461 -111.6050 74° East 409 471 33,000  Level Albuquerque Center
13:13 33.8786 -111.4778 73° East 405 466 33,000  Level Albuquerque Center
13:14 33.9158 -111.3233 74° East 404 465 33,000  Level Albuquerque Center
13:15 33.9478 -111.1950 73° East 403 464 33,000  Level Albuquerque Center
13:16 33.9792 -111.0647 74° East 406 467 33,000  Level Albuquerque Center
13:17 34.0097 -110.9339 74° East 406 467 33,000  Level Albuquerque Center
13:18 34.0403 -110.8033 74° East 406 467 33,000  Level Albuquerque Center
13:19 34.0744 -110.6628 74° East 406 467 33,000  Level Albuquerque Center
13:20 34.1044 -110.5325 74° East 406 467 33,000  Level Albuquerque Center
13:21 34.1406 -110.3769 74° East 406 467 33,000  Level Albuquerque Center
13:22 34.1733 -110.2461 73° East 408 470 33,000  Level Albuquerque Center
13:23 34.2033 -110.1150 75° East 408 470 33,000  Level Albuquerque Center
13:24 34.2356 -109.9736 75° East 405 466 33,000  Level Albuquerque Center
13:25 34.2647 -109.8472 74° East 407 468 33,000  Level Albuquerque Center
13:26 34.2989 -109.7011 74° East 406 467 33,000  Level Albuquerque Center
13:27 34.3275 -109.5753 75° East 405 466 33,000  Level Albuquerque Center
13:28 34.3606 -109.4297 75° East 403 464 33,000  Level Albuquerque Center
13:29 34.3892 -109.3025 75° East 406 467 33,000  Level Albuquerque Center
13:30 34.4219 -109.1547 75° East 408 470 33,000  Level Albuquerque Center
13:31 34.4550 -109.0308 72° East 407 468 33,000  Level Albuquerque Center
13:32 34.4969 -108.8856 71° East 408 470 33,000  Level Albuquerque Center
13:33 34.5306 -108.7606 72° East 408 470 33,000  Level Albuquerque Center
13:34 34.5706 -108.6153 71° East 407 468 33,000  Level Albuquerque Center
13:35 34.6047 -108.4908 72° East 407 468 33,000  Level Albuquerque Center
13:36 34.6369 -108.3681 72° East 411 473 33,000  Level Albuquerque Center
13:37 34.6717 -108.2375 72° East 409 471 33,000  Level Albuquerque Center
13:38 34.7156 -108.0800 71° East 409 471 33,000  Level Albuquerque Center
13:39 34.7497 -107.9492 72° East 407 468 33,000  Level Albuquerque Center
13:40 34.7850 -107.8167 72° East 410 472 33,000  Level Albuquerque Center
13:42 34.8197 -107.6861 72° East 408 470 33,000  Level Albuquerque Center
13:43 34.8536 -107.5533 73° East 411 473 33,000  Level Albuquerque Center
13:44 34.8883 -107.4208 72° East 411 473 33,000  Level Albuquerque Center
13:45 34.9294 -107.2628 72° East 410 472 33,000  Level Albuquerque Center
13:46 34.9664 -107.1231 72° East 415 478 33,000  Level Albuquerque Center
13:47 34.9994 -106.9961 72° East 414 476 33,000  Level Albuquerque Center
13:48 35.0367 -106.8492 73° East 407 468 33,000  Level Albuquerque Center
13:49 35.0769 -106.7272 68° East 405 466 33,000  Level Albuquerque Center
13:50 35.1250 -106.6019 65° Northeast 418 481 33,000 480 Level Albuquerque Center
13:51 35.1753 -106.4631 66° East 417 480 34,100 900 Climbing Albuquerque Center
13:52 35.2222 -106.3386 65° Northeast 406 467 34,900 420 Climbing Albuquerque Center
13:53 35.2722 -106.2025 66° East 401 461 35,000  Climbing Albuquerque Center
13:54 35.3150 -106.0828 66° East 408 470 35,000  Level Albuquerque Center
13:55 35.3619 -105.9567 65° Northeast 404 465 35,000  Level Albuquerque Center
13:56 35.4178 -105.8061 65° Northeast 411 473 35,000  Level Albuquerque Center
13:57 35.4647 -105.6789 66° East 408 470 35,000  Level Albuquerque Center
13:58 35.5114 -105.5494 66° East 410 472 35,000  Level Albuquerque Center
13:59 35.5547 -105.4214 67° East 404 465 35,000  Level Albuquerque Center
14:00 35.6000 -105.2922 67° East 407 468 35,000  Level Albuquerque Center
14:01 35.6486 -105.1611 65° Northeast 413 475 35,000  Level Albuquerque Center
14:02 35.6944 -105.0319 66° East 410 472 35,000  Level Albuquerque Center
14:03 35.7403 -104.9014 67° East 411 473 35,000  Level Albuquerque Center
14:04 35.7872 -104.7706 66° East 412 474 35,000  Level Albuquerque Center
14:05 35.8406 -104.6172 67° East 412 474 35,000  Level Albuquerque Center
14:06 35.8869 -104.4847 67° East 414 476 35,000  Level Albuquerque Center
14:07 35.9331 -104.3522 67° East 415 478 35,000  Level Albuquerque Center
14:08 35.9797 -104.2194 66° East 417 480 35,000  Level Albuquerque Center
14:09 36.0261 -104.0861 67° East 418 481 35,000  Level Albuquerque Center
14:10 36.0719 -103.9522 67° East 417 480 35,000  Level Albuquerque Center
14:11 36.1175 -103.8178 67° East 420 483 35,000  Level Albuquerque Center
14:12 36.1653 -103.6850 66° East 417 480 35,000  Level Albuquerque Center
14:13 36.2094 -103.5508 68° East 418 481 35,000  Level Albuquerque Center
14:14 36.2556 -103.4172 67° East 417 480 35,000  Level Albuquerque Center
14:16 36.3008 -103.2822 67° East 419 482 35,000  Level Albuquerque Center
14:17 36.3525 -103.1242 68° East 420 483 35,000  Level Albuquerque Center
14:18 36.3978 -102.9889 67° East 420 483 35,000  Level Albuquerque Center
14:19 36.4419 -102.8542 68° East 420 483 35,000  Level Albuquerque Center
14:20 36.4861 -102.7183 68° East 422 486 35,000  Level Albuquerque Center
14:21 36.5308 -102.5853 67° East 419 482 35,000  Level Albuquerque Center
14:22 36.5750 -102.4492 68° East 422 486 35,000  Level Albuquerque Center
14:23 36.6189 -102.3147 68° East 421 484 35,000  Level Albuquerque Center
14:24 36.6692 -102.1597 68° East 419 482 35,000  Level Albuquerque Center
14:25 36.7103 -102.0286 69° East 422 486 35,000  Level Albuquerque Center
14:26 36.7522 -101.9008 68° East 420 483 35,000  Level Albuquerque Center
14:27 36.8003 -101.7489 68° East 421 484 35,000  Level Albuquerque Center
14:28 36.8406 -101.6181 69° East 422 486 35,000  Level Albuquerque Center
14:29 36.8886 -101.4681 68° East 419 482 35,000  Level Albuquerque Center
14:30 36.9300 -101.3381 68° East 420 483 35,000  Level Albuquerque Center
14:31 36.9853 -101.1642 68° East 423 487 35,000  Level Kansas City Center
14:32 37.0242 -101.0328 70° East 423 487 35,000  Level Kansas City Center
14:33 37.0656 -100.8783 71° East 422 486 35,000  Level Kansas City Center
14:34 37.0947 -100.7422 75° East 424 488 35,000  Level Kansas City Center
14:35 37.1297 -100.5842 74° East 424 488 35,000  Level Kansas City Center
14:36 37.1597 -100.4492 74° East 424 488 35,000  Level Kansas City Center
14:37 37.1936 -100.2911 75° East 423 487 35,000  Level Kansas City Center
14:38 37.2225 -100.1567 75° East 421 484 35,000  Level Kansas City Center
14:39 37.2564 -99.9983 75° East 421 484 35,000  Level Kansas City Center
14:40 37.2844 -99.8622 75° East 423 487 35,000  Level Kansas City Center
14:41 37.3183 -99.7031 75° East 423 487 35,000  Level Kansas City Center
14:42 37.3483 -99.5647 75° East 427 491 35,000  Level Kansas City Center
14:43 37.3825 -99.4078 75° East 431 496 35,000  Level Kansas City Center
14:44 37.4125 -99.2650 75° East 427 491 35,000  Level Kansas City Center
14:46 37.4425 -99.1211 75° East 426 490 35,000  Level Kansas City Center
14:47 37.4686 -98.9761 77° East 425 489 35,000  Level Kansas City Center
14:48 37.4983 -98.8319 75° East 426 490 35,000  Level Kansas City Center
14:49 37.5269 -98.6886 76° East 424 488 35,000  Level Kansas City Center
14:50 37.5619 -98.5164 76° East 425 489 35,000  Level Kansas City Center
14:51 37.5903 -98.3731 76° East 424 488 35,000  Level Kansas City Center
14:52 37.6206 -98.2294 75° East 425 489 35,000  Level Kansas City Center
14:53 37.6461 -98.0878 77° East 423 487 35,000  Level Kansas City Center
14:54 37.6758 -97.9458 75° East 418 481 35,000  Level Kansas City Center
14:55 37.7075 -97.7667 77° East 426 490 35,000  Level Kansas City Center
14:56 37.7372 -97.6203 76° East 430 495 35,000  Level Kansas City Center
14:57 37.7953 -97.4928 60° Northeast 425 489 35,000  Level Kansas City Center
14:58 37.8614 -97.3783 54° Northeast 429 494 35,000  Level Kansas City Center
14:59 37.9289 -97.2581 55° Northeast 422 486 35,000  Level Kansas City Center
15:00 37.9972 -97.1378 54° Northeast 422 486 35,000  Level Kansas City Center
15:01 38.0781 -96.9903 55° Northeast 426 490 35,000  Level Kansas City Center
15:02 38.1458 -96.8689 55° Northeast 423 487 35,000  Level Kansas City Center
15:03 38.2122 -96.7469 55° Northeast 421 484 35,000  Level Kansas City Center
15:04 38.2806 -96.6253 54° Northeast 421 484 35,000  Level Kansas City Center
15:05 38.3469 -96.5022 55° Northeast 423 487 35,000  Level Kansas City Center
15:06 38.4197 -96.3703 55° Northeast 416 479 35,000  Level Kansas City Center
15:07 38.4925 -96.2336 56° Northeast 419 482 35,000  Level Kansas City Center
15:08 38.5567 -96.1167 55° Northeast 419 482 35,000  Level Kansas City Center
15:09 38.6183 -95.9978 56° Northeast 418 481 35,000  Level Kansas City Center
15:10 38.6922 -95.8617 55° Northeast 418 481 35,000  Level Kansas City Center
15:11 38.7558 -95.7439 55° Northeast 421 484 35,000  Level Kansas City Center
15:12 38.8292 -95.6053 56° Northeast 420 483 35,000  Level Kansas City Center
15:13 38.8919 -95.4875 56° Northeast 420 483 35,000  Level Kansas City Center
15:14 38.9647 -95.3489 56° Northeast 420 483 35,000  Level Kansas City Center
15:15 39.0375 -95.2119 56° Northeast 423 487 35,000  Level Kansas City Center
15:17 39.0992 -95.0919 56° Northeast 423 487 35,000  Level Kansas City Center
15:18 39.1617 -94.9736 56° Northeast 423 487 35,000  Level Kansas City Center
15:19 39.2314 -94.8336 57° Northeast 415 478 35,000  Level Kansas City Center
15:20 39.2575 -94.6872 77° East 433 498 35,000  Level Kansas City Center
15:21 39.2758 -94.5114 82° East 441 507 35,000  Level Kansas City Center
15:22 39.2903 -94.3631 83° East 437 503 35,000  Level Kansas City Center
15:23 39.3075 -94.1897 83° East 434 499 35,000  Level Kansas City Center
15:24 39.3225 -94.0419 82° East 434 499 35,000  Level Kansas City Center
15:25 39.3394 -93.8697 83° East 435 501 35,000  Level Kansas City Center
15:26 39.3528 -93.7239 83° East 438 504 35,000  Level Kansas City Center
15:27 39.3681 -93.5694 83° East 438 504 35,000  Level Kansas City Center
15:28 39.3836 -93.4144 83° East 439 505 35,000  Level Kansas City Center
15:29 39.4003 -93.2303 83° East 436 502 35,000  Level Kansas City Center
15:30 39.4133 -93.0758 84° East 437 503 35,000  Level Kansas City Center
15:31 39.4267 -92.9186 84° East 444 511 35,000  Level Kansas City Center
15:32 39.4400 -92.7633 84° East 442 509 35,000  Level Kansas City Center
15:33 39.4533 -92.6108 83° East 437 503 35,000  Level Kansas City Center
15:34 39.4689 -92.4256 84° East 436 502 35,000  Level Kansas City Center
15:35 39.4814 -92.2706 84° East 437 503 35,000  Level Kansas City Center
15:36 39.4939 -92.1181 84° East 435 501 35,000  Level Kansas City Center
15:37 39.5067 -91.9617 84° East 438 504 35,000  Level Kansas City Center
15:38 39.5217 -91.7778 84° East 435 501 35,000  Level Kansas City Center
15:39 39.5328 -91.6258 85° East 432 497 35,000  Level Kansas City Center
15:40 39.5444 -91.4719 84° East 432 497 35,000  Level Kansas City Center
15:41 39.5556 -91.3183 85° East 433 498 35,000  Level Kansas City Center
15:42 39.5669 -91.1628 85° East 433 498 35,000  Level Kansas City Center
15:43 39.5781 -91.0078 85° East 432 497 35,000  Level Kansas City Center
15:44 39.5889 -90.8522 85° East 433 498 35,000  Level Kansas City Center
15:45 39.6022 -90.6653 85° East 433 498 35,000  Level Kansas City Center
15:46 39.6128 -90.5069 85° East 437 503 35,000  Level Kansas City Center
15:47 39.6225 -90.3517 85° East 435 501 35,000  Level Kansas City Center
15:48 39.6339 -90.1961 85° East 433 498 35,000  Level Kansas City Center
15:49 39.6428 -90.0397 86° East 433 498 35,000  Level Kansas City Center
15:51 39.6525 -89.8825 85° East 435 501 35,000  Level Kansas City Center
15:52 39.6617 -89.7250 86° East 436 502 35,000  Level Kansas City Center
15:53 39.6731 -89.5389 85° East 433 498 35,000  Level Kansas City Center
15:54 39.6828 -89.3828 85° East 433 498 35,000  Level Kansas City Center
15:55 39.6914 -89.2178 86° East 435 501 35,000  Level Kansas City Center
15:56 39.7000 -89.0611 86° East 436 502 35,000  Level Kansas City Center
15:57 39.7083 -88.9042 86° East 437 503 35,000  Level Kansas City Center
15:58 39.7169 -88.7478 86° East 436 502 35,000  Level Kansas City Center
15:59 39.7244 -88.5911 86° East 437 503 35,000  Level Kansas City Center
16:00 39.7328 -88.4336 86° East 437 503 35,000  Level Kansas City Center
16:01 39.7414 -88.2447 87° East 438 504 35,000  Level Kansas City Center
16:02 39.7494 -88.0950 86° East 438 504 35,000 -120 Level Kansas City Center
16:02 39.7514 -88.0547 86° East 434 499 34,900 -540 Descending Indianapolis Center
16:03 39.8125 -87.9378 56° Northeast 401 461 34,300 -840 Descending Indianapolis Center
16:04 39.8878 -87.7969 55° Northeast 398 458 33,200 -1,080 Descending Indianapolis Center
16:05 39.9456 -87.6644 60° Northeast 417 480 32,100 -1,020 Descending Indianapolis Center
16:06 40.0044 -87.5294 60° Northeast 427 491 31,100 -540 Descending Indianapolis Center
16:07 40.0633 -87.3922 61° Northeast 432 497 31,000 -60 Descending Indianapolis Center
16:08 40.1211 -87.2567 61° Northeast 429 494 31,000  Level Indianapolis Center
16:09 40.1803 -87.1206 60° Northeast 427 491 31,000  Level Chicago Center
16:10 40.2381 -86.9839 61° Northeast 428 493 31,000  Level Chicago Center
16:11 40.2967 -86.8489 60° Northeast 428 493 31,000  Level Chicago Center
16:12 40.3539 -86.7125 61° Northeast 427 491 31,000  Level Chicago Center
16:13 40.4114 -86.5744 61° Northeast 430 495 31,000 -120 Level Chicago Center
16:14 40.4694 -86.4381 61° Northeast 429 494 30,800 -780 Descending Chicago Center
16:16 40.5367 -86.2761 61° Northeast 423 487 29,500 -1,200 Descending Chicago Center
16:17 40.5936 -86.1408 61° Northeast 423 487 28,400 -1,080 Descending Chicago Center
16:18 40.6508 -86.0022 61° Northeast 429 494 27,300 -1,080 Descending Chicago Center
16:19 40.7083 -85.8625 61° Northeast 440 506 26,200 -1,080 Descending Chicago Center
16:20 40.7617 -85.7275 62° Northeast 424 488 25,100 -1,080 Descending Chicago Center
16:21 40.8242 -85.5711 62° Northeast 407 468 24,000 -540 Descending Chicago Center
16:22 40.8764 -85.4439 61° Northeast 400 460 24,000 -300 Level Chicago Center
16:23 40.9289 -85.3147 62° Northeast 401 461 23,500 -780 Descending Chicago Center
16:24 40.9853 -85.1853 60° Northeast 411 473 22,500 -960 Descending Chicago Center
16:25 41.0642 -85.0936 41° Northeast 388 447 21,500 -720 Descending Chicago Center
16:26 41.1597 -84.9939 38° Northeast 372 428 21,000 -300 Descending Chicago Center
16:27 41.2381 -84.9097 39° Northeast 367 422 21,000  Level Chicago Center
16:28 41.3164 -84.8253 39° Northeast 366 421 21,000  Level Chicago Center
16:29 41.3950 -84.7403 39° Northeast 366 421 21,000 -780 Level Chicago Center
16:30 41.4586 -84.6297 52° Northeast 378 435 19,500 -1,560 Descending Chicago Center
16:31 41.5386 -84.5006 50° Northeast 370 426 17,800 -1,620 Descending Cleveland Center
16:32 41.6022 -84.4017 49° Northeast 359 413 16,200 -1,680 Descending Cleveland Center
16:33 41.6333 -84.3481 52° Northeast 357 411 15,300 -1,620 Descending Cleveland Center
16:33 41.6661 -84.2997 48° Northeast 359 413 14,600 -1,440 Descending Cleveland Center
16:34 41.7081 -84.2272 52° Northeast 348 400 13,600 -1,140 Descending Cleveland Center
16:34 41.7169 -84.2108 54° Northeast 347 399 13,500 -900 Descending Cleveland Center
16:35 41.7717 -84.1278 49° Northeast 348 400 12,700 -900 Descending Cleveland Center
16:35 41.7806 -84.1114 54° Northeast 347 399 12,600 -720 Descending Cleveland Center
16:36 41.8333 -84.0250 51° Northeast 339 390 12,000 -600 Descending Cleveland Center
16:36 41.8419 -84.0144 42° Northeast 342 394 12,000  Level Cleveland Center
16:37 41.8986 -83.9336 47° Northeast 338 389 12,000  Level Cleveland Center
16:38 41.9553 -83.8472 49° Northeast 340 391 12,000  Level Cleveland Center
16:38 41.9661 -83.8256 56° Northeast 337 388 12,000  Level Cleveland Center
16:39 42.0269 -83.7419 46° Northeast 342 394 12,000  Level Cleveland Center
16:40 42.0875 -83.6583 46° Northeast 341 392 12,000  Level Cleveland Center
16:40 42.0944 -83.6389 64° Northeast 337 388 12,000  Level Cleveland Center
16:41 42.1550 -83.5522 47° Northeast 322 371 12,000 -540 Level Cleveland Center
16:42 42.2147 -83.5044 31° Northeast 261 300 11,100 -1,140 Descending Cleveland Center
16:42 42.2275 -83.4939 31° Northeast 284 327 10,700 -1,920 Descending Cleveland Center
16:43 42.2781 -83.4711 18° North 271 312 9,400 -1,980 Descending Cleveland Center
16:44 42.3436 -83.4347 22° Northeast 252 290 7,400 -1,500 Descending Cleveland Center
16:45 42.4047 -83.4064 19° North 198 228 6,300 -1,080 Descending Cleveland Center
16:46 42.4228 -83.3511 66° East 207 238 5,300 -1,260 Descending Cleveland Center
16:47 42.3972 -83.2794 116° Southeast 204 235 3,900 -1,080 Descending Cleveland Center
16:48 42.3458 -83.2464 155° Southeast 181 208 3,000 -480 Descending Cleveland Center
16:49 42.3017 -83.2700 202° Southwest 174 200 2,900 -120 Descending Cleveland Center